Time;durP1;ratioP1;P1;durP2;ratioP2;P2;SDS_P1;SDS_P2;PMS_P1;PMS_P2;Temp;Humidity;BMP_temperature;BMP_pressure;BME280_temperature;BME280_humidity;BME280_pressure;Samples;Min_cycle;Max_cycle;Signal;HPM_P1;HPM_P2
2022/07/02 00:02:26;;;;;;;6.20;4.57;;;14.70;99.90;;;;;;6060153;23;20530;-83
2022/07/02 00:04:59;;;;;;;5.07;4.57;;;14.70;99.90;;;;;;6061403;23;20451;-83
2022/07/02 00:07:27;;;;;;;5.53;4.97;;;14.70;99.90;;;;;;6056998;23;21008;-83
2022/07/02 00:09:57;;;;;;;6.07;5.00;;;14.60;99.90;;;;;;6057304;23;20800;-83
2022/07/02 00:12:25;;;;;;;4.93;4.50;;;14.60;99.90;;;;;;6061657;23;20451;-83
2022/07/02 00:14:54;;;;;;;5.10;4.47;;;14.60;99.90;;;;;;6059220;23;21082;-83
2022/07/02 00:17:22;;;;;;;6.27;5.73;;;14.60;99.90;;;;;;6058580;23;20529;-83
2022/07/02 00:19:49;;;;;;;5.53;5.13;;;14.50;99.90;;;;;;6062031;23;20538;-83
2022/07/02 00:22:17;;;;;;;5.83;5.40;;;14.50;99.90;;;;;;6061403;23;20455;-83
2022/07/02 00:24:45;;;;;;;5.50;5.10;;;14.40;99.90;;;;;;6058842;23;20443;-83
2022/07/02 00:27:15;;;;;;;5.10;4.60;;;14.50;99.90;;;;;;6063237;23;20473;-82
2022/07/02 00:29:49;;;;;;;4.87;4.47;;;14.40;99.90;;;;;;6059349;23;20550;-83
2022/07/02 00:32:17;;;;;;;5.13;4.70;;;14.40;99.90;;;;;;6059553;23;20437;-83
2022/07/02 00:34:46;;;;;;;5.30;4.83;;;14.40;99.90;;;;;;6058220;23;20448;-83
2022/07/02 00:37:14;;;;;;;5.07;4.67;;;14.40;99.90;;;;;;6060395;23;20467;-83
2022/07/02 00:39:42;;;;;;;5.53;5.03;;;14.40;99.90;;;;;;6060691;23;20451;-84
2022/07/02 00:42:10;;;;;;;5.53;5.13;;;14.40;99.90;;;;;;6059077;23;20982;-84
2022/07/02 00:44:40;;;;;;;5.93;5.53;;;14.40;99.90;;;;;;6061619;23;20451;-83
2022/07/02 00:47:09;;;;;;;6.10;5.00;;;14.50;99.90;;;;;;6060648;23;20518;-83
2022/07/02 00:49:38;;;;;;;5.13;4.73;;;14.40;99.90;;;;;;6056634;23;20463;-83
2022/07/02 00:52:07;;;;;;;5.17;4.67;;;14.50;99.90;;;;;;6056421;23;20898;-83
2022/07/02 00:54:35;;;;;;;5.10;4.70;;;14.40;99.90;;;;;;6070229;23;20451;-83
2022/07/02 00:57:03;;;;;;;4.50;4.07;;;14.40;99.90;;;;;;6058802;23;22514;-83
2022/07/02 00:59:31;;;;;;;4.82;4.43;;;14.30;99.90;;;;;;6057805;23;21025;-83
2022/07/02 01:02:00;;;;;;;4.10;3.80;;;14.30;99.90;;;;;;6061063;23;20192;-83
2022/07/02 01:04:29;;;;;;;4.10;3.80;;;14.30;99.90;;;;;;6060356;23;20466;-83
2022/07/02 01:07:01;;;;;;;4.57;4.17;;;14.30;99.90;;;;;;6059241;23;20436;-83
2022/07/02 01:12:17;;;;;;;4.60;4.20;;;14.30;99.90;;;;;;6059769;23;20746;-83
2022/07/02 01:14:46;;;;;;;4.33;3.93;;;14.20;99.90;;;;;;6058986;23;20443;-83
2022/07/02 01:17:14;;;;;;;5.70;4.17;;;14.20;99.90;;;;;;6061578;23;20475;-83
2022/07/02 01:19:41;;;;;;;4.47;4.17;;;14.20;99.90;;;;;;6058248;23;20472;-83
2022/07/02 01:22:18;;;;;;;4.38;3.97;;;14.20;99.90;;;;;;6060864;23;20447;-82
2022/07/02 01:24:48;;;;;;;4.10;3.90;;;14.10;99.90;;;;;;6057727;23;20230;-83
2022/07/02 01:27:16;;;;;;;4.60;4.20;;;14.00;99.90;;;;;;6061353;23;21119;-82
2022/07/02 01:29:43;;;;;;;4.50;4.20;;;14.00;99.90;;;;;;6060284;23;20494;-82
2022/07/02 01:32:10;;;;;;;5.18;4.78;;;13.90;99.90;;;;;;6058272;23;20196;-82
2022/07/02 01:34:39;;;;;;;5.20;4.53;;;13.90;99.90;;;;;;6060254;23;20268;-82
2022/07/02 01:37:11;;;;;;;5.47;5.07;;;13.80;99.90;;;;;;6056888;23;20482;-82
2022/07/02 01:39:41;;;;;;;5.70;5.30;;;13.80;99.90;;;;;;6059057;23;20258;-82
2022/07/02 01:42:10;;;;;;;5.47;5.07;;;13.80;99.90;;;;;;6058556;23;20193;-82
2022/07/02 01:44:38;;;;;;;6.13;5.63;;;13.70;99.90;;;;;;6060597;23;20272;-83
2022/07/02 01:47:06;;;;;;;5.50;5.10;;;13.70;99.90;;;;;;6061194;23;20193;-82
2022/07/02 01:49:34;;;;;;;5.57;5.15;;;13.60;99.90;;;;;;6060664;23;20676;-83
2022/07/02 01:52:01;;;;;;;5.57;5.18;;;13.60;99.90;;;;;;6058864;23;20192;-82
2022/07/02 01:54:28;;;;;;;7.50;6.80;;;13.60;99.90;;;;;;6059895;23;20189;-82
2022/07/02 01:56:57;;;;;;;7.00;6.30;;;13.60;99.90;;;;;;6062572;23;20470;-82
2022/07/02 01:59:24;;;;;;;7.15;6.45;;;13.60;99.90;;;;;;6058316;23;20267;-82
2022/07/02 02:01:51;;;;;;;6.00;5.60;;;13.50;99.90;;;;;;6058690;23;20189;-83
2022/07/02 02:04:19;;;;;;;6.50;6.00;;;13.50;99.90;;;;;;6053164;23;20206;-82
2022/07/02 02:06:46;;;;;;;6.35;5.85;;;13.50;99.90;;;;;;6062005;23;20271;-81
2022/07/02 02:09:13;;;;;;;6.57;6.07;;;13.50;99.90;;;;;;6059400;23;20299;-82
2022/07/02 02:11:40;;;;;;;6.95;6.35;;;13.50;99.90;;;;;;6060702;23;20514;-83
2022/07/02 02:14:08;;;;;;;7.60;6.88;;;13.50;99.90;;;;;;6057710;23;20745;-83
2022/07/02 02:16:35;;;;;;;6.72;6.13;;;13.40;99.90;;;;;;6059167;23;20266;-83
2022/07/02 02:19:03;;;;;;;6.85;6.25;;;13.40;99.90;;;;;;6058682;23;20259;-82
2022/07/02 02:21:30;;;;;;;7.07;6.47;;;13.30;99.90;;;;;;6060232;23;20196;-82
2022/07/02 02:23:59;;;;;;;6.78;6.28;;;13.20;99.90;;;;;;6059656;23;20212;-82
2022/07/02 02:26:26;;;;;;;6.30;5.68;;;13.20;99.90;;;;;;6059122;23;20677;-82
2022/07/02 02:28:53;;;;;;;6.90;6.40;;;13.10;99.90;;;;;;6058582;23;20217;-82
2022/07/02 02:31:22;;;;;;;6.55;5.93;;;13.10;99.90;;;;;;6057687;23;20204;-82
2022/07/02 02:33:50;;;;;;;6.97;6.35;;;13.00;99.90;;;;;;6059661;23;20605;-83
2022/07/02 02:36:17;;;;;;;7.15;6.55;;;13.00;99.90;;;;;;6059092;23;20195;-82
2022/07/02 02:38:46;;;;;;;6.88;6.28;;;13.00;99.90;;;;;;6057173;23;20216;-81
2022/07/02 02:41:13;;;;;;;9.85;7.03;;;12.90;99.90;;;;;;6059749;23;20227;-83
2022/07/02 02:43:42;;;;;;;6.80;6.30;;;12.90;99.90;;;;;;6059692;23;20199;-82
2022/07/02 02:46:09;;;;;;;7.47;6.88;;;12.90;99.90;;;;;;6055043;23;20192;-82
2022/07/02 02:48:38;;;;;;;7.80;7.10;;;13.00;99.90;;;;;;6053237;23;20204;-82
2022/07/02 02:51:06;;;;;;;8.30;7.60;;;13.00;99.90;;;;;;6053013;23;20243;-82
2022/07/02 02:53:34;;;;;;;7.53;7.03;;;13.00;99.90;;;;;;6058619;23;20200;-82
2022/07/02 02:56:02;;;;;;;7.82;7.00;;;13.00;99.90;;;;;;6061071;23;20246;-82
2022/07/02 02:58:29;;;;;;;8.63;7.78;;;12.90;99.90;;;;;;6057735;23;20303;-82
2022/07/02 03:00:56;;;;;;;8.27;7.57;;;12.90;99.90;;;;;;6056377;23;20251;-83
2022/07/02 03:03:24;;;;;;;7.72;6.95;;;12.90;99.90;;;;;;6059767;23;20291;-82
2022/07/02 03:05:52;;;;;;;8.02;7.43;;;12.90;99.90;;;;;;6057777;23;20193;-81
2022/07/02 03:08:20;;;;;;;8.15;7.55;;;12.90;99.90;;;;;;6063762;23;20702;-82
2022/07/02 03:10:47;;;;;;;7.90;7.20;;;13.00;99.90;;;;;;6056097;23;20197;-82
2022/07/02 03:13:14;;;;;;;8.68;8.07;;;13.00;99.90;;;;;;6059394;23;20658;-82
2022/07/02 03:15:41;;;;;;;7.75;7.15;;;13.00;99.90;;;;;;6070762;23;20198;-83
2022/07/02 03:18:08;;;;;;;9.18;8.45;;;13.00;99.90;;;;;;6070174;23;20228;-82
2022/07/02 03:20:35;;;;;;;7.10;6.40;;;12.90;99.90;;;;;;6060521;23;20268;-82
2022/07/02 03:23:04;;;;;;;6.93;6.25;;;12.90;99.90;;;;;;6059703;23;20188;-82
2022/07/02 03:25:31;;;;;;;6.55;5.95;;;12.90;99.90;;;;;;6060504;23;20192;-82
2022/07/02 03:27:58;;;;;;;7.88;7.28;;;13.00;99.90;;;;;;6061643;23;20219;-82
2022/07/02 03:30:25;;;;;;;8.30;7.70;;;13.00;99.90;;;;;;6060787;23;20525;-83
2022/07/02 03:32:52;;;;;;;7.38;6.80;;;13.00;99.90;;;;;;6060234;23;20184;-81
2022/07/02 03:35:20;;;;;;;7.10;6.60;;;13.00;99.90;;;;;;6042714;23;20181;-82
2022/07/02 03:37:47;;;;;;;9.25;8.45;;;13.00;99.90;;;;;;6062090;23;20205;-83
2022/07/02 03:40:16;;;;;;;7.90;7.30;;;13.00;99.90;;;;;;6059440;23;20268;-83
2022/07/02 03:42:43;;;;;;;7.22;6.72;;;13.00;99.90;;;;;;6057497;23;20841;-82
2022/07/02 03:45:11;;;;;;;7.53;6.90;;;13.00;99.90;;;;;;6060400;23;20184;-82
2022/07/02 03:47:38;;;;;;;7.22;6.53;;;13.10;99.90;;;;;;6066600;23;20231;-82
2022/07/02 03:50:06;;;;;;;7.80;7.18;;;13.00;99.90;;;;;;6072583;23;20235;-80
2022/07/02 03:52:33;;;;;;;7.85;7.15;;;13.00;99.90;;;;;;6074335;23;20189;-82
2022/07/02 03:55:00;;;;;;;7.82;7.22;;;13.10;99.90;;;;;;6068302;23;20643;-82
2022/07/02 03:57:28;;;;;;;8.07;7.43;;;13.00;99.90;;;;;;6071957;23;20218;-82
2022/07/02 03:59:55;;;;;;;6.90;6.40;;;13.10;99.90;;;;;;6072717;23;20204;-82
2022/07/02 04:02:23;;;;;;;7.40;6.70;;;13.10;99.90;;;;;;6072478;23;20271;-82
2022/07/02 04:04:49;;;;;;;5.78;5.28;;;13.10;99.90;;;;;;6072080;23;20187;-82
2022/07/02 04:07:17;;;;;;;5.70;5.30;;;13.10;99.90;;;;;;6073311;23;20312;-81
2022/07/02 04:09:44;;;;;;;6.50;5.30;;;13.20;99.90;;;;;;6068893;23;20573;-82
2022/07/02 04:12:12;;;;;;;5.95;5.45;;;13.20;99.90;;;;;;6077424;23;20192;-82
2022/07/02 04:14:40;;;;;;;5.38;4.78;;;13.20;99.90;;;;;;6069613;23;20238;-82
2022/07/02 04:17:07;;;;;;;5.30;4.90;;;13.20;99.90;;;;;;6066803;23;20213;-83
2022/07/02 04:19:34;;;;;;;5.40;4.95;;;13.30;99.90;;;;;;6068669;23;20299;-81
2022/07/02 04:22:02;;;;;;;5.20;4.80;;;13.30;99.90;;;;;;6071035;23;20529;-82
2022/07/02 04:24:29;;;;;;;5.20;4.80;;;13.30;99.90;;;;;;6062233;23;20199;-82
2022/07/02 04:26:56;;;;;;;5.63;5.13;;;13.30;99.90;;;;;;6066913;23;20193;-82
2022/07/02 04:29:23;;;;;;;4.80;4.40;;;13.40;99.90;;;;;;6075864;23;20219;-82
2022/07/02 04:31:53;;;;;;;5.10;4.70;;;13.40;99.90;;;;;;6066611;23;20193;-82
2022/07/02 04:34:20;;;;;;;5.53;5.03;;;13.40;99.90;;;;;;6070256;23;20267;-82
2022/07/02 04:36:47;;;;;;;5.32;4.90;;;13.40;99.90;;;;;;6075884;23;20266;-82
2022/07/02 04:39:14;;;;;;;5.63;5.07;;;13.40;99.90;;;;;;6066971;23;20208;-82
2022/07/02 04:41:41;;;;;;;5.13;4.65;;;13.40;99.90;;;;;;6074340;23;20627;-82
2022/07/02 04:44:08;;;;;;;5.00;4.60;;;13.50;99.90;;;;;;6068083;23;20186;-84
2022/07/02 04:46:36;;;;;;;6.68;5.25;;;13.50;99.90;;;;;;6061741;23;20188;-82
2022/07/02 04:49:04;;;;;;;4.82;4.43;;;13.50;99.90;;;;;;6073909;23;20222;-78
2022/07/02 04:51:32;;;;;;;5.10;4.80;;;13.50;99.90;;;;;;6075008;23;20593;-79
2022/07/02 04:53:59;;;;;;;4.30;3.90;;;13.60;99.90;;;;;;6074868;23;20197;-78
2022/07/02 04:56:46;;;;;;;5.03;4.63;;;13.60;99.90;;;;;;5909952;23;20460;-78
2022/07/02 04:59:13;;;;;;;6.75;3.90;;;13.70;99.90;;;;;;5038202;28;20220;-78
2022/07/02 05:01:40;;;;;;;5.38;4.97;;;13.70;99.90;;;;;;5042942;28;20547;-77
2022/07/02 05:04:08;;;;;;;6.65;5.00;;;13.80;99.90;;;;;;5043398;28;20208;-79
2022/07/02 05:06:35;;;;;;;6.07;4.90;;;13.80;99.90;;;;;;5032274;28;20691;-78
2022/07/02 05:09:03;;;;;;;5.05;4.75;;;13.90;99.90;;;;;;5021769;28;20678;-78
2022/07/02 05:11:30;;;;;;;5.95;5.38;;;13.90;99.90;;;;;;5028314;28;20264;-78
2022/07/02 05:13:57;;;;;;;5.75;5.25;;;14.00;99.90;;;;;;5031215;28;20276;-78
2022/07/02 05:16:24;;;;;;;5.82;5.43;;;14.10;99.90;;;;;;5028993;28;20236;-78
2022/07/02 05:18:51;;;;;;;6.10;5.60;;;14.10;99.90;;;;;;5028677;28;20237;-79
2022/07/02 05:21:20;;;;;;;7.10;6.50;;;14.10;99.90;;;;;;5029712;28;20197;-78
2022/07/02 05:23:47;;;;;;;8.20;7.03;;;14.20;99.90;;;;;;5031337;28;20800;-79
2022/07/02 05:26:14;;;;;;;6.43;6.03;;;14.30;99.90;;;;;;5024928;28;20479;-78
2022/07/02 05:28:41;;;;;;;6.87;6.27;;;14.40;99.90;;;;;;5028712;28;20459;-78
2022/07/02 05:31:08;;;;;;;6.73;6.13;;;14.40;99.90;;;;;;5029584;28;20471;-78
2022/07/02 05:33:35;;;;;;;8.30;6.20;;;14.50;99.90;;;;;;5031731;28;20482;-78
2022/07/02 05:36:02;;;;;;;6.03;5.63;;;14.50;99.90;;;;;;5028665;28;20486;-78
2022/07/02 05:38:31;;;;;;;5.30;4.90;;;14.60;99.90;;;;;;5026278;28;20488;-79
2022/07/02 05:40:58;;;;;;;7.40;5.20;;;14.70;99.90;;;;;;5029426;28;20471;-79
2022/07/02 05:43:25;;;;;;;5.20;4.80;;;14.80;99.90;;;;;;5030673;28;20544;-79
2022/07/02 05:45:52;;;;;;;5.00;4.60;;;14.90;99.90;;;;;;5030514;28;20480;-79
2022/07/02 05:48:19;;;;;;;4.77;4.37;;;15.10;99.90;;;;;;5026198;28;20454;-78
2022/07/02 05:50:46;;;;;;;4.30;4.00;;;15.20;99.90;;;;;;5031026;28;20819;-78
2022/07/02 05:53:13;;;;;;;5.00;4.37;;;15.20;99.90;;;;;;5031228;28;20460;-79
2022/07/02 05:55:42;;;;;;;4.30;4.00;;;15.30;99.90;;;;;;5030293;28;20491;-78
2022/07/02 05:58:10;;;;;;;4.17;3.80;;;15.30;99.90;;;;;;5026708;28;20472;-78
2022/07/02 06:00:37;;;;;;;4.27;3.90;;;15.40;99.90;;;;;;5027057;28;20479;-79
2022/07/02 06:03:04;;;;;;;4.53;4.07;;;15.50;99.90;;;;;;5027899;28;20471;-78
2022/07/02 06:08:15;;;;;;;3.50;3.30;;;15.70;99.90;;;;;;5027478;28;20518;-79
2022/07/02 06:10:45;;;;;;;5.37;3.80;;;15.80;99.90;;;;;;5030784;28;20478;-78
2022/07/02 06:13:14;;;;;;;3.63;3.33;;;16.00;99.90;;;;;;5025073;28;20534;-78
2022/07/02 06:15:41;;;;;;;3.30;3.10;;;16.10;99.90;;;;;;5028713;28;20474;-79
2022/07/02 06:18:08;;;;;;;3.23;3.03;;;16.10;99.90;;;;;;5028340;28;20487;-78
2022/07/02 06:20:35;;;;;;;3.10;2.90;;;16.30;99.90;;;;;;5026731;28;20460;-78
2022/07/02 06:23:02;;;;;;;3.57;3.27;;;16.40;99.90;;;;;;5026163;28;20460;-77
2022/07/02 06:25:29;;;;;;;3.40;2.70;;;16.50;99.90;;;;;;5026317;28;21029;-79
2022/07/02 06:27:57;;;;;;;2.83;2.63;;;16.50;99.90;;;;;;5029430;28;20487;-78
2022/07/02 06:30:24;;;;;;;3.97;3.07;;;16.70;99.90;;;;;;5023667;28;20473;-78
2022/07/02 06:32:51;;;;;;;3.43;3.10;;;16.80;99.90;;;;;;5029516;28;20467;-78
2022/07/02 06:35:18;;;;;;;3.60;2.90;;;16.90;99.90;;;;;;5028329;28;20460;-77
2022/07/02 06:37:45;;;;;;;2.97;2.67;;;16.90;99.90;;;;;;5029410;28;20460;-77
2022/07/02 06:40:12;;;;;;;2.57;2.37;;;17.00;99.90;;;;;;5028122;28;20452;-78
2022/07/02 06:42:39;;;;;;;3.37;2.83;;;17.10;99.90;;;;;;5049961;28;20474;-77
2022/07/02 06:45:09;;;;;;;2.00;1.90;;;17.10;99.90;;;;;;5038222;28;20454;-78
2022/07/02 06:47:40;;;;;;;1.67;1.57;;;17.20;99.90;;;;;;5049698;28;21049;-78
2022/07/02 06:50:08;;;;;;;2.17;2.07;;;17.20;99.90;;;;;;5037978;28;20451;-78
2022/07/02 06:52:36;;;;;;;1.70;1.60;;;17.20;99.90;;;;;;5051707;28;20479;-78
2022/07/02 06:55:04;;;;;;;1.80;1.70;;;17.30;99.90;;;;;;5044052;28;20464;-78
2022/07/02 06:57:31;;;;;;;1.87;1.60;;;17.40;99.90;;;;;;5041424;28;20447;-78
2022/07/02 06:59:59;;;;;;;2.30;1.33;;;17.50;99.90;;;;;;5046755;28;20486;-77
2022/07/02 07:02:27;;;;;;;3.03;1.57;;;17.60;99.90;;;;;;5054661;28;20586;-77
2022/07/02 07:04:54;;;;;;;1.33;1.23;;;17.70;99.90;;;;;;5052994;28;20522;-77
2022/07/02 07:07:26;;;;;;;1.40;1.30;;;17.90;99.90;;;;;;5046151;28;20455;-78
2022/07/02 07:09:53;;;;;;;1.20;1.10;;;18.20;99.90;;;;;;5049338;28;20470;-77
2022/07/02 07:12:21;;;;;;;1.40;1.30;;;18.30;99.90;;;;;;5046611;28;20456;-76
2022/07/02 07:14:48;;;;;;;1.10;1.00;;;18.50;99.90;;;;;;5039962;28;20488;-77
2022/07/02 07:17:16;;;;;;;1.27;1.17;;;18.60;99.90;;;;;;5046939;28;20480;-76
2022/07/02 07:19:44;;;;;;;1.70;1.40;;;18.70;99.90;;;;;;5044788;28;20865;-77
2022/07/02 07:22:11;;;;;;;2.13;1.37;;;18.80;99.90;;;;;;5042367;28;20538;-77
2022/07/02 07:24:38;;;;;;;1.53;0.93;;;19.00;99.90;;;;;;5051667;28;20463;-77
2022/07/02 07:27:06;;;;;;;1.03;0.93;;;19.10;99.90;;;;;;5046277;28;20490;-76
2022/07/02 07:29:35;;;;;;;1.43;1.10;;;19.10;99.90;;;;;;5047620;28;20452;-77
2022/07/02 07:32:02;;;;;;;1.53;1.00;;;19.20;99.90;;;;;;5048516;28;20463;-77
2022/07/02 07:34:29;;;;;;;0.80;0.80;;;19.30;99.90;;;;;;5046320;28;20455;-77
2022/07/02 07:36:58;;;;;;;1.20;1.10;;;19.30;99.90;;;;;;5047907;28;20474;-78
2022/07/02 07:39:25;;;;;;;2.50;1.00;;;19.50;99.90;;;;;;5045375;28;20530;-83
2022/07/02 07:41:52;;;;;;;1.10;0.90;;;19.70;99.90;;;;;;5043114;28;20477;-78
2022/07/02 07:44:19;;;;;;;1.10;0.80;;;19.90;99.90;;;;;;5046546;28;20520;-77
2022/07/02 07:46:47;;;;;;;0.83;0.83;;;20.10;99.90;;;;;;5050989;28;20491;-78
2022/07/02 07:49:15;;;;;;;0.80;0.80;;;20.40;99.90;;;;;;5047474;28;20491;-77
2022/07/02 07:51:42;;;;;;;0.90;0.90;;;21.10;99.90;;;;;;5036158;28;20803;-78
2022/07/02 07:54:10;;;;;;;1.00;0.90;;;21.70;99.90;;;;;;5047163;28;20813;-78
2022/07/02 07:56:41;;;;;;;1.80;0.90;;;22.10;99.90;;;;;;5050387;28;20483;-78
2022/07/02 07:59:08;;;;;;;1.10;0.90;;;22.30;99.90;;;;;;5048296;28;20549;-79
2022/07/02 08:01:35;;;;;;;2.03;0.90;;;22.60;99.90;;;;;;5042253;28;20443;-78
2022/07/02 08:04:03;;;;;;;1.43;0.80;;;22.70;99.90;;;;;;5045210;28;20471;-78
2022/07/02 08:06:30;;;;;;;1.13;0.70;;;22.70;99.90;;;;;;5040231;28;20476;-78
2022/07/02 08:08:57;;;;;;;0.83;0.80;;;23.00;99.90;;;;;;5037828;28;20451;-78
2022/07/02 08:11:26;;;;;;;1.03;0.93;;;23.60;99.90;;;;;;5043391;28;20530;-78
2022/07/02 08:13:53;;;;;;;1.00;0.90;;;23.80;99.90;;;;;;5038783;28;21038;-78
2022/07/02 08:16:21;;;;;;;0.80;0.80;;;23.80;99.90;;;;;;5047181;28;20475;-78
2022/07/02 08:18:48;;;;;;;1.00;0.90;;;23.90;99.90;;;;;;5043624;28;20497;-78
2022/07/02 08:23:48;;;;;;;1.43;1.00;;;24.10;99.90;;;;;;6000791;23;20564;-75
2022/07/02 08:26:15;;;;;;;0.80;0.80;;;24.30;99.90;;;;;;5996169;23;20519;-75
2022/07/02 08:28:44;;;;;;;2.60;1.00;;;24.70;99.90;;;;;;5991309;23;20547;-75
2022/07/02 08:31:11;;;;;;;1.00;0.90;;;25.00;99.90;;;;;;5990446;23;20456;-75
2022/07/02 08:33:38;;;;;;;0.80;0.80;;;25.40;99.90;;;;;;5988275;23;20481;-75
2022/07/02 08:36:05;;;;;;;0.90;0.90;;;25.70;99.90;;;;;;5991797;23;20516;-75
2022/07/02 08:38:32;;;;;;;0.83;0.83;;;25.90;99.90;;;;;;5994828;23;20986;-75
2022/07/02 08:40:59;;;;;;;1.30;0.90;;;25.90;99.90;;;;;;6002089;23;20437;-75
2022/07/02 08:43:27;;;;;;;1.63;0.80;;;25.80;99.90;;;;;;5999664;23;20433;-75
2022/07/02 08:45:59;;;;;;;1.30;1.00;;;26.00;99.90;;;;;;5980448;23;20462;-75
2022/07/02 08:48:28;;;;;;;1.57;1.00;;;26.00;99.40;;;;;;5983446;23;20437;-75
2022/07/02 08:50:57;;;;;;;1.00;0.80;;;26.30;98.40;;;;;;5983877;23;20442;-76
2022/07/02 08:53:24;;;;;;;1.63;0.70;;;26.60;98.30;;;;;;5979631;23;20777;-75
2022/07/02 08:55:54;;;;;;;1.00;0.87;;;26.60;96.10;;;;;;5996799;23;20536;-75
2022/07/02 08:58:23;;;;;;;0.87;0.80;;;26.70;94.80;;;;;;5990592;23;20440;-75
2022/07/02 09:00:50;;;;;;;1.40;0.80;;;26.60;95.10;;;;;;5989594;23;20446;-75
2022/07/02 09:03:21;;;;;;;1.10;0.90;;;26.70;94.50;;;;;;5985969;23;20520;-76
2022/07/02 09:05:51;;;;;;;1.67;1.00;;;26.40;94.50;;;;;;5993305;23;20458;-76
2022/07/02 09:08:22;;;;;;;2.30;0.90;;;26.50;93.90;;;;;;5988065;23;20478;-75
2022/07/02 09:10:52;;;;;;;0.97;0.87;;;26.90;93.90;;;;;;5989352;23;20445;-75
2022/07/02 09:13:20;;;;;;;0.93;0.83;;;26.90;93.50;;;;;;5987637;23;20430;-76
2022/07/02 09:15:47;;;;;;;1.10;1.00;;;27.00;93.80;;;;;;5992907;23;20454;-75
2022/07/02 09:18:14;;;;;;;1.00;0.90;;;27.00;93.70;;;;;;5989350;23;20459;-76
2022/07/02 09:20:42;;;;;;;0.90;0.90;;;27.20;93.40;;;;;;5996084;23;20469;-75
2022/07/02 09:23:10;;;;;;;1.03;0.90;;;27.40;93.60;;;;;;5990097;23;21212;-76
2022/07/02 09:25:37;;;;;;;1.00;0.90;;;27.80;93.70;;;;;;5993658;23;20461;-76
2022/07/02 09:28:06;;;;;;;0.80;0.80;;;28.30;93.00;;;;;;5990221;23;20438;-75
2022/07/02 09:30:36;;;;;;;0.97;0.97;;;29.00;92.40;;;;;;5990887;23;20517;-75
2022/07/02 09:35:49;;;;;;;1.10;0.90;;;29.70;90.90;;;;;;5991643;23;20777;-75
2022/07/02 09:38:16;;;;;;;1.20;1.10;;;29.50;90.60;;;;;;5990883;23;20449;-76
2022/07/02 09:40:52;;;;;;;1.33;1.10;;;29.10;89.70;;;;;;5989207;23;20996;-75
2022/07/02 09:43:28;;;;;;;1.00;0.90;;;29.00;91.00;;;;;;5988840;23;20776;-76
2022/07/02 09:45:55;;;;;;;2.03;1.00;;;29.50;90.00;;;;;;5991236;23;20837;-76
2022/07/02 09:48:22;;;;;;;1.00;0.90;;;29.70;90.00;;;;;;5992025;23;20450;-75
2022/07/02 09:50:52;;;;;;;1.60;0.93;;;28.90;86.40;;;;;;5988986;23;20846;-75
2022/07/02 09:53:19;;;;;;;1.37;0.90;;;28.90;87.70;;;;;;5992422;23;20887;-74
2022/07/02 09:55:49;;;;;;;1.10;0.80;;;28.70;87.00;;;;;;5994059;23;20466;-75
2022/07/02 09:58:24;;;;;;;1.13;0.80;;;28.70;88.90;;;;;;5999875;23;20465;-75
2022/07/02 10:00:52;;;;;;;2.03;0.90;;;29.20;86.60;;;;;;6005512;23;20956;-75
2022/07/02 10:03:21;;;;;;;1.40;0.90;;;29.60;84.90;;;;;;6000244;23;20434;-75
2022/07/02 10:05:53;;;;;;;1.73;0.77;;;29.80;81.30;;;;;;5998061;23;20517;-75
2022/07/02 10:08:20;;;;;;;1.00;0.90;;;29.30;81.90;;;;;;5994419;23;20437;-76
2022/07/02 10:10:48;;;;;;;2.17;0.90;;;29.30;83.70;;;;;;5997737;23;20500;-75
2022/07/02 10:13:16;;;;;;;1.20;0.90;;;29.20;80.40;;;;;;5994457;23;20433;-75
2022/07/02 10:15:51;;;;;;;1.97;0.90;;;29.20;79.00;;;;;;5992466;23;20461;-75
2022/07/02 10:18:19;;;;;;;1.00;0.90;;;29.00;73.10;;;;;;5986325;23;20440;-75
2022/07/02 10:20:47;;;;;;;1.10;0.77;;;28.80;75.70;;;;;;6003698;23;20998;-75
2022/07/02 10:23:17;;;;;;;1.10;1.00;;;28.60;77.50;;;;;;5993498;23;20986;-75
2022/07/02 10:25:45;;;;;;;1.23;1.00;;;28.40;76.90;;;;;;5999192;23;20457;-76
2022/07/02 10:28:12;;;;;;;0.73;0.70;;;28.30;78.50;;;;;;6004875;23;20491;-75
2022/07/02 10:30:41;;;;;;;0.90;0.60;;;27.80;76.60;;;;;;6004966;23;20449;-75
2022/07/02 10:33:17;;;;;;;1.13;0.83;;;27.60;75.80;;;;;;5999080;23;20441;-75
2022/07/02 10:35:48;;;;;;;0.70;0.70;;;27.60;75.00;;;;;;5997824;23;20486;-75
2022/07/02 10:38:27;;;;;;;0.70;0.60;;;27.80;73.90;;;;;;6002053;23;20437;-75
2022/07/02 10:40:54;;;;;;;0.70;0.70;;;27.80;73.30;;;;;;6003834;23;20523;-75
2022/07/02 10:43:21;;;;;;;1.00;0.90;;;27.80;73.50;;;;;;5999271;23;20464;-75
2022/07/02 10:45:48;;;;;;;1.20;0.90;;;27.60;73.60;;;;;;5996291;23;20462;-75
2022/07/02 10:48:16;;;;;;;0.80;0.70;;;27.90;74.40;;;;;;5993639;23;20433;-75
2022/07/02 10:50:46;;;;;;;1.73;0.70;;;28.30;73.80;;;;;;6003274;23;20511;-75
2022/07/02 10:53:14;;;;;;;4.10;1.03;;;28.10;71.40;;;;;;5995024;23;20443;-75
2022/07/02 10:55:44;;;;;;;1.57;1.07;;;27.80;73.50;;;;;;6002727;23;20469;-75
2022/07/02 10:58:20;;;;;;;2.50;0.90;;;27.70;72.40;;;;;;6003909;23;20499;-75
2022/07/02 11:00:48;;;;;;;0.80;0.80;;;27.60;72.10;;;;;;5999901;23;20469;-75
2022/07/02 11:03:17;;;;;;;0.90;0.70;;;27.40;72.00;;;;;;5995586;23;20476;-75
2022/07/02 11:05:59;;;;;;;1.00;0.80;;;27.50;71.80;;;;;;5976389;24;20473;-75
2022/07/02 11:08:46;;;;;;;7.10;1.37;;;27.80;71.10;;;;;;5991742;23;20447;-75
2022/07/02 11:11:20;;;;;;;5.73;1.87;;;28.20;70.80;;;;;;6001512;23;20441;-75
2022/07/02 11:13:49;;;;;;;1.20;0.90;;;28.20;72.00;;;;;;6005030;23;20510;-75
2022/07/02 11:16:21;;;;;;;1.87;1.07;;;28.10;72.60;;;;;;6004319;23;20441;-75
2022/07/02 11:18:49;;;;;;;1.20;0.97;;;28.00;70.90;;;;;;6002944;23;20426;-75
2022/07/02 11:21:17;;;;;;;3.80;1.33;;;27.80;72.80;;;;;;6002972;23;20812;-75
2022/07/02 11:23:44;;;;;;;1.57;0.90;;;27.90;75.10;;;;;;6004165;23;20465;-75
2022/07/02 11:26:17;;;;;;;1.73;0.80;;;27.70;72.20;;;;;;6004882;23;20439;-75
2022/07/02 11:28:44;;;;;;;17.80;3.43;;;27.40;74.40;;;;;;6004144;23;20439;-75
2022/07/02 11:31:12;;;;;;;2.50;0.90;;;27.70;75.60;;;;;;6004568;23;20441;-75
2022/07/02 11:33:44;;;;;;;1.53;1.00;;;28.30;72.50;;;;;;6004083;23;20968;-75
2022/07/02 11:36:12;;;;;;;1.00;0.80;;;28.60;71.10;;;;;;6003298;23;20998;-75
2022/07/02 11:38:39;;;;;;;3.80;0.87;;;28.90;70.20;;;;;;6004534;23;20524;-75
2022/07/02 11:41:18;;;;;;;1.03;0.90;;;28.90;69.10;;;;;;5994030;23;20470;-75
2022/07/02 11:43:45;;;;;;;1.00;0.80;;;28.70;68.80;;;;;;5988978;23;20472;-75
2022/07/02 11:46:13;;;;;;;0.73;0.70;;;28.60;68.60;;;;;;5977054;24;20442;-75
2022/07/02 11:48:41;;;;;;;1.03;0.70;;;28.50;66.50;;;;;;5981177;23;20446;-75
2022/07/02 11:51:08;;;;;;;1.33;0.80;;;28.40;67.30;;;;;;5970562;23;20455;-75
2022/07/02 11:53:36;;;;;;;0.90;0.80;;;28.30;68.70;;;;;;5991627;23;20805;-75
2022/07/02 11:56:07;;;;;;;1.23;0.90;;;28.40;69.80;;;;;;5997568;23;20928;-75
2022/07/02 11:58:44;;;;;;;1.37;0.90;;;28.80;68.90;;;;;;6005792;23;20921;-75
2022/07/02 12:01:21;;;;;;;0.93;0.80;;;28.90;65.10;;;;;;5990326;23;20523;-75
2022/07/02 12:03:50;;;;;;;1.30;0.90;;;29.10;65.70;;;;;;5993930;23;20452;-75
2022/07/02 12:06:17;;;;;;;1.80;1.10;;;29.50;63.60;;;;;;5985208;23;20449;-75
2022/07/02 12:08:44;;;;;;;1.23;0.90;;;29.10;63.50;;;;;;6003823;23;20440;-75
2022/07/02 12:11:13;;;;;;;0.80;0.77;;;28.90;61.20;;;;;;5980456;23;20491;-75
2022/07/02 12:13:41;;;;;;;0.70;0.70;;;29.20;62.80;;;;;;5999820;23;20461;-75
2022/07/02 12:16:11;;;;;;;0.80;0.80;;;29.10;61.90;;;;;;5992668;23;20473;-75
2022/07/02 12:18:38;;;;;;;0.83;0.80;;;29.00;63.50;;;;;;6004383;23;20445;-76
2022/07/02 12:21:10;;;;;;;1.07;0.90;;;29.10;62.40;;;;;;6004792;23;20472;-75
2022/07/02 12:23:49;;;;;;;1.00;0.90;;;28.70;64.70;;;;;;6008865;23;20469;-75
2022/07/02 12:26:23;;;;;;;1.27;0.83;;;28.60;65.50;;;;;;6012968;23;20445;-76
2022/07/02 12:31:49;;;;;;;1.50;0.80;;;28.40;65.40;;;;;;6007041;23;20441;-75
2022/07/02 12:34:16;;;;;;;1.10;0.87;;;28.70;67.80;;;;;;6008588;23;20456;-76
2022/07/02 12:37:01;;;;;;;0.90;0.80;;;28.60;64.30;;;;;;6001020;23;20788;-75
2022/07/02 12:39:39;;;;;;;0.90;0.70;;;28.30;61.20;;;;;;5994105;23;20492;-75
2022/07/02 12:42:20;;;;;;;1.00;0.90;;;27.90;62.40;;;;;;5997435;23;20445;-75
2022/07/02 12:44:57;;;;;;;1.77;1.10;;;28.00;63.60;;;;;;5987600;23;20464;-75
2022/07/02 12:47:26;;;;;;;1.13;0.70;;;28.00;63.10;;;;;;6000387;23;20452;-75
2022/07/02 12:49:54;;;;;;;1.97;1.03;;;28.30;64.60;;;;;;5996738;23;20516;-75
2022/07/02 12:52:21;;;;;;;0.90;0.70;;;28.80;64.50;;;;;;6002777;23;20449;-75
2022/07/02 12:54:48;;;;;;;0.80;0.80;;;29.00;64.90;;;;;;6001388;23;20457;-75
2022/07/02 12:57:17;;;;;;;1.00;0.90;;;29.80;62.80;;;;;;5987922;23;20448;-76
2022/07/02 12:59:45;;;;;;;0.90;0.70;;;30.70;62.50;;;;;;5988685;23;20469;-76
2022/07/02 13:02:21;;;;;;;1.20;0.83;;;31.80;60.60;;;;;;5982926;23;20437;-75
2022/07/02 13:04:48;;;;;;;1.53;0.80;;;31.60;59.10;;;;;;5997621;23;20453;-75
2022/07/02 13:07:16;;;;;;;1.17;1.07;;;31.50;60.50;;;;;;5985440;23;20441;-75
2022/07/02 13:09:44;;;;;;;0.80;0.80;;;31.30;59.70;;;;;;5985726;23;20440;-75